This is the latest recevied weather packets stored in our database for station/object N5VIS. If no packets are shown the sender has not sent any weather packets the latest 10 day(s).
| Time | Temp. | Humidity | Pressure | Rain* | Wind** | Luminosity | Snow |
|---|---|---|---|---|---|---|---|
| 1777808537 | - | - | - | 0 mm | - | - | - |
| 1777808235 | 14.44° C | 75% | 1020.8 hPa | 0 mm | - | - | - |
| 1777807934 | 14.44° C | 75% | 1020.9 hPa | 0 mm | - | - | - |
| 1777807631 | 13.89° C | 76% | 1020.8 hPa | 0 mm | - | - | - |
| 1777807328 | 13.33° C | 76% | 1020.7 hPa | 0 mm | - | - | - |
| 1777807024 | 13.89° C | 78% | 1020.6 hPa | 0 mm | - | - | - |
| 1777806721 | 13.89° C | 77% | 1020.5 hPa | 0 mm | - | - | - |
| 1777806416 | 13.89° C | 78% | 1020.3 hPa | 0 mm | - | - | - |
| 1777806114 | 13.33° C | 78% | 1020.7 hPa | 0 mm | - | - | - |
| 1777805810 | 13.33° C | 78% | 1020.6 hPa | 0 mm | - | - | - |
| 1777805507 | 12.78° C | 76% | 1020.4 hPa | 0 mm | - | - | - |
| 1777805205 | 11.11° C | 88% | 1020.4 hPa | 0 mm | - | - | - |
| 1777804903 | 11.11° C | 88% | 1020.2 hPa | 0 mm | - | - | - |
| 1777804600 | 11.11° C | 89% | 1020.2 hPa | 0 mm | - | - | - |
| 1777804298 | 11.11° C | 89% | 1020.4 hPa | 0 mm | - | - | - |
| 1777803995 | 11.11° C | 88% | 1020.4 hPa | 0 mm | - | - | - |
| 1777803691 | 11.11° C | 87% | 1020.2 hPa | 0 mm | - | - | - |
| 1777803387 | 11.11° C | 87% | 1020.1 hPa | 0 mm | - | - | - |
| 1777803085 | 11.11° C | 87% | 1020.3 hPa | 0 mm | - | - | - |
| 1777802782 | 11.67° C | 86% | 1020.1 hPa | 0 mm | - | - | - |
| 1777802480 | 11.67° C | 85% | 1020.2 hPa | 0 mm | - | - | - |
| 1777802178 | 11.67° C | 83% | 1020.2 hPa | 0 mm | - | - | - |
| 1777801876 | 12.22° C | 83% | 1020.1 hPa | 0 mm | - | - | - |
| 1777801572 | 12.78° C | 82% | 1020.1 hPa | 0 mm | - | - | - |
| 1777801269 | 12.78° C | 81% | 1020.2 hPa | 0 mm | - | - | - |
* Rain latest hour (hover to see other rain measurements)
** Current wind speed in m/s (hover to see current wind gust speed)